sensor_id;sensor_type;location;lat;lon;timestamp;temperature;humidity
25616;DHT22;13482;48.234;13.006;2023-02-28T00:01:32;2.60;62.90
25616;DHT22;13482;48.234;13.006;2023-02-28T00:04:00;2.60;62.90
25616;DHT22;13482;48.234;13.006;2023-02-28T00:06:27;2.60;62.90
25616;DHT22;13482;48.234;13.006;2023-02-28T00:08:54;2.60;62.90
25616;DHT22;13482;48.234;13.006;2023-02-28T00:11:21;2.60;62.90
25616;DHT22;13482;48.234;13.006;2023-02-28T00:13:49;2.50;62.90
25616;DHT22;13482;48.234;13.006;2023-02-28T00:16:21;2.50;63.10
25616;DHT22;13482;48.234;13.006;2023-02-28T00:18:49;2.50;63.10
25616;DHT22;13482;48.234;13.006;2023-02-28T00:21:18;2.50;63.10
25616;DHT22;13482;48.234;13.006;2023-02-28T00:23:46;2.40;63.10
25616;DHT22;13482;48.234;13.006;2023-02-28T00:26:14;2.40;63.10
25616;DHT22;13482;48.234;13.006;2023-02-28T00:28:41;2.40;63.20
25616;DHT22;13482;48.234;13.006;2023-02-28T00:31:08;2.40;63.20
25616;DHT22;13482;48.234;13.006;2023-02-28T00:33:36;2.40;63.20
25616;DHT22;13482;48.234;13.006;2023-02-28T00:36:08;2.30;63.30
25616;DHT22;13482;48.234;13.006;2023-02-28T00:38:37;2.40;63.40
25616;DHT22;13482;48.234;13.006;2023-02-28T00:41:05;2.30;63.40
25616;DHT22;13482;48.234;13.006;2023-02-28T00:43:34;2.30;63.40
25616;DHT22;13482;48.234;13.006;2023-02-28T00:46:02;2.30;63.50
25616;DHT22;13482;48.234;13.006;2023-02-28T00:48:30;2.30;63.60
25616;DHT22;13482;48.234;13.006;2023-02-28T00:50:59;2.30;63.60
25616;DHT22;13482;48.234;13.006;2023-02-28T00:53:26;2.30;63.60
25616;DHT22;13482;48.234;13.006;2023-02-28T00:55:53;2.30;63.60
25616;DHT22;13482;48.234;13.006;2023-02-28T00:58:20;2.30;63.70
25616;DHT22;13482;48.234;13.006;2023-02-28T01:00:48;2.40;63.70
25616;DHT22;13482;48.234;13.006;2023-02-28T01:03:19;2.40;63.70
25616;DHT22;13482;48.234;13.006;2023-02-28T01:05:47;2.40;63.70
25616;DHT22;13482;48.234;13.006;2023-02-28T01:08:15;2.40;63.70
25616;DHT22;13482;48.234;13.006;2023-02-28T01:10:42;2.40;63.70
25616;DHT22;13482;48.234;13.006;2023-02-28T01:13:10;2.40;63.70
25616;DHT22;13482;48.234;13.006;2023-02-28T01:15:41;2.40;63.60
25616;DHT22;13482;48.234;13.006;2023-02-28T01:18:10;2.30;63.60
25616;DHT22;13482;48.234;13.006;2023-02-28T01:20:38;2.30;63.60
25616;DHT22;13482;48.234;13.006;2023-02-28T01:23:06;2.30;63.60
25616;DHT22;13482;48.234;13.006;2023-02-28T01:25:35;2.30;63.60
25616;DHT22;13482;48.234;13.006;2023-02-28T01:28:03;2.30;63.70
25616;DHT22;13482;48.234;13.006;2023-02-28T01:30:31;2.30;63.70
25616;DHT22;13482;48.234;13.006;2023-02-28T01:32:58;2.30;63.70
25616;DHT22;13482;48.234;13.006;2023-02-28T01:35:26;2.20;63.70
25616;DHT22;13482;48.234;13.006;2023-02-28T01:37:53;2.20;63.70
25616;DHT22;13482;48.234;13.006;2023-02-28T01:40:20;2.20;63.70
25616;DHT22;13482;48.234;13.006;2023-02-28T01:42:48;2.20;63.70
25616;DHT22;13482;48.234;13.006;2023-02-28T01:45:26;2.20;63.70
25616;DHT22;13482;48.234;13.006;2023-02-28T01:48:02;2.20;63.80
25616;DHT22;13482;48.234;13.006;2023-02-28T01:50:34;2.10;63.80
25616;DHT22;13482;48.234;13.006;2023-02-28T01:53:06;2.10;63.80
25616;DHT22;13482;48.234;13.006;2023-02-28T01:55:41;2.10;63.80
25616;DHT22;13482;48.234;13.006;2023-02-28T01:58:13;2.10;63.90
25616;DHT22;13482;48.234;13.006;2023-02-28T02:00:40;2.00;63.90
25616;DHT22;13482;48.234;13.006;2023-02-28T02:03:12;2.00;64.00
25616;DHT22;13482;48.234;13.006;2023-02-28T02:05:43;2.10;64.00
25616;DHT22;13482;48.234;13.006;2023-02-28T02:08:19;2.00;64.00
25616;DHT22;13482;48.234;13.006;2023-02-28T02:10:59;2.00;64.40
25616;DHT22;13482;48.234;13.006;2023-02-28T02:19:05;2.00;64.10
25616;DHT22;13482;48.234;13.006;2023-02-28T02:22:32;2.00;64.20
25616;DHT22;13482;48.234;13.006;2023-02-28T02:37:26;2.00;64.30
25616;DHT22;13482;48.234;13.006;2023-02-28T02:42:55;2.00;64.40
25616;DHT22;13482;48.234;13.006;2023-02-28T02:45:38;2.00;64.40
25616;DHT22;13482;48.234;13.006;2023-02-28T02:48:09;2.00;64.40
25616;DHT22;13482;48.234;13.006;2023-02-28T02:50:45;2.10;64.40
25616;DHT22;13482;48.234;13.006;2023-02-28T02:53:18;2.00;64.40
25616;DHT22;13482;48.234;13.006;2023-02-28T02:55:51;2.10;64.40
25616;DHT22;13482;48.234;13.006;2023-02-28T02:58:27;2.10;64.40
25616;DHT22;13482;48.234;13.006;2023-02-28T03:01:01;2.10;64.40
25616;DHT22;13482;48.234;13.006;2023-02-28T03:03:31;2.10;64.40
25616;DHT22;13482;48.234;13.006;2023-02-28T03:06:00;2.10;64.40
25616;DHT22;13482;48.234;13.006;2023-02-28T03:08:29;2.10;64.50
25616;DHT22;13482;48.234;13.006;2023-02-28T03:11:12;2.10;64.50
25616;DHT22;13482;48.234;13.006;2023-02-28T03:14:44;2.10;64.50
25616;DHT22;13482;48.234;13.006;2023-02-28T03:23:39;2.10;64.50
25616;DHT22;13482;48.234;13.006;2023-02-28T03:26:22;2.10;64.30
25616;DHT22;13482;48.234;13.006;2023-02-28T03:32:17;2.10;64.40
25616;DHT22;13482;48.234;13.006;2023-02-28T03:35:06;2.10;64.30
25616;DHT22;13482;48.234;13.006;2023-02-28T03:41:14;2.10;64.40
25616;DHT22;13482;48.234;13.006;2023-02-28T03:43:56;2.10;64.50
25616;DHT22;13482;48.234;13.006;2023-02-28T03:46:30;2.10;64.30
25616;DHT22;13482;48.234;13.006;2023-02-28T03:49:09;2.10;64.30
25616;DHT22;13482;48.234;13.006;2023-02-28T03:51:43;2.10;64.40
25616;DHT22;13482;48.234;13.006;2023-02-28T03:54:16;2.10;64.40
25616;DHT22;13482;48.234;13.006;2023-02-28T03:56:53;2.00;64.30
25616;DHT22;13482;48.234;13.006;2023-02-28T03:59:29;2.00;64.40
25616;DHT22;13482;48.234;13.006;2023-02-28T04:02:00;2.00;64.40
25616;DHT22;13482;48.234;13.006;2023-02-28T04:04:27;2.00;64.30
25616;DHT22;13482;48.234;13.006;2023-02-28T04:07:03;2.00;64.30
25616;DHT22;13482;48.234;13.006;2023-02-28T04:09:37;2.00;64.30
25616;DHT22;13482;48.234;13.006;2023-02-28T04:12:05;2.00;64.30
25616;DHT22;13482;48.234;13.006;2023-02-28T04:14:32;2.00;64.30
25616;DHT22;13482;48.234;13.006;2023-02-28T04:16:59;2.00;64.30
25616;DHT22;13482;48.234;13.006;2023-02-28T04:19:27;1.90;64.30
25616;DHT22;13482;48.234;13.006;2023-02-28T04:21:54;1.90;64.30
25616;DHT22;13482;48.234;13.006;2023-02-28T04:24:27;1.90;64.30
25616;DHT22;13482;48.234;13.006;2023-02-28T04:26:56;1.90;64.30
25616;DHT22;13482;48.234;13.006;2023-02-28T04:29:31;1.90;64.30
25616;DHT22;13482;48.234;13.006;2023-02-28T04:32:02;1.90;64.30
25616;DHT22;13482;48.234;13.006;2023-02-28T04:34:31;1.80;64.30
25616;DHT22;13482;48.234;13.006;2023-02-28T04:36:58;1.80;64.30
25616;DHT22;13482;48.234;13.006;2023-02-28T04:39:42;1.80;64.30
25616;DHT22;13482;48.234;13.006;2023-02-28T04:42:10;1.80;64.30
25616;DHT22;13482;48.234;13.006;2023-02-28T04:44:38;1.80;64.40
25616;DHT22;13482;48.234;13.006;2023-02-28T04:47:05;1.80;64.40
25616;DHT22;13482;48.234;13.006;2023-02-28T04:49:32;1.80;64.40
25616;DHT22;13482;48.234;13.006;2023-02-28T04:52:00;1.80;64.40
25616;DHT22;13482;48.234;13.006;2023-02-28T04:54:27;1.80;64.40
25616;DHT22;13482;48.234;13.006;2023-02-28T04:56:55;1.80;64.30
25616;DHT22;13482;48.234;13.006;2023-02-28T04:59:22;1.80;64.40
25616;DHT22;13482;48.234;13.006;2023-02-28T05:01:49;1.80;64.40
25616;DHT22;13482;48.234;13.006;2023-02-28T05:04:18;1.70;64.40
25616;DHT22;13482;48.234;13.006;2023-02-28T05:06:45;1.80;64.40
25616;DHT22;13482;48.234;13.006;2023-02-28T05:09:12;1.70;64.40
25616;DHT22;13482;48.234;13.006;2023-02-28T05:11:40;1.70;64.40
25616;DHT22;13482;48.234;13.006;2023-02-28T05:14:13;1.70;64.50
25616;DHT22;13482;48.234;13.006;2023-02-28T05:16:40;1.70;64.50
25616;DHT22;13482;48.234;13.006;2023-02-28T05:19:08;1.70;64.50
25616;DHT22;13482;48.234;13.006;2023-02-28T05:21:40;1.70;64.40
25616;DHT22;13482;48.234;13.006;2023-02-28T05:24:12;1.80;64.40
25616;DHT22;13482;48.234;13.006;2023-02-28T05:26:41;1.80;64.50
25616;DHT22;13482;48.234;13.006;2023-02-28T05:29:10;1.70;64.40
25616;DHT22;13482;48.234;13.006;2023-02-28T05:31:38;1.70;64.40
25616;DHT22;13482;48.234;13.006;2023-02-28T05:34:05;1.70;64.30
25616;DHT22;13482;48.234;13.006;2023-02-28T05:36:32;1.70;64.30
25616;DHT22;13482;48.234;13.006;2023-02-28T05:38:59;1.70;64.30
25616;DHT22;13482;48.234;13.006;2023-02-28T05:41:27;1.70;64.30
25616;DHT22;13482;48.234;13.006;2023-02-28T05:43:54;1.70;64.20
25616;DHT22;13482;48.234;13.006;2023-02-28T05:46:22;1.70;64.20
25616;DHT22;13482;48.234;13.006;2023-02-28T05:48:49;1.60;64.20
25616;DHT22;13482;48.234;13.006;2023-02-28T05:51:17;1.60;64.10
25616;DHT22;13482;48.234;13.006;2023-02-28T05:53:44;1.60;64.10
25616;DHT22;13482;48.234;13.006;2023-02-28T05:56:11;1.60;64.10
25616;DHT22;13482;48.234;13.006;2023-02-28T05:58:39;1.60;64.10
25616;DHT22;13482;48.234;13.006;2023-02-28T06:01:34;1.50;64.10
25616;DHT22;13482;48.234;13.006;2023-02-28T06:04:05;1.50;64.20
25616;DHT22;13482;48.234;13.006;2023-02-28T06:06:38;1.50;64.00
25616;DHT22;13482;48.234;13.006;2023-02-28T06:09:06;1.40;64.10
25616;DHT22;13482;48.234;13.006;2023-02-28T06:11:33;1.40;64.10
25616;DHT22;13482;48.234;13.006;2023-02-28T06:14:01;1.40;64.10
25616;DHT22;13482;48.234;13.006;2023-02-28T06:16:29;1.40;64.20
25616;DHT22;13482;48.234;13.006;2023-02-28T06:18:58;1.40;64.20
25616;DHT22;13482;48.234;13.006;2023-02-28T06:21:28;1.40;64.20
25616;DHT22;13482;48.234;13.006;2023-02-28T06:23:57;1.30;64.20
25616;DHT22;13482;48.234;13.006;2023-02-28T06:26:25;1.30;64.20
25616;DHT22;13482;48.234;13.006;2023-02-28T06:28:53;1.30;64.30
25616;DHT22;13482;48.234;13.006;2023-02-28T06:31:21;1.40;64.30
25616;DHT22;13482;48.234;13.006;2023-02-28T06:33:49;1.40;64.30
25616;DHT22;13482;48.234;13.006;2023-02-28T06:36:17;1.40;64.40
25616;DHT22;13482;48.234;13.006;2023-02-28T06:38:45;1.40;64.50
25616;DHT22;13482;48.234;13.006;2023-02-28T06:41:12;1.40;64.50
25616;DHT22;13482;48.234;13.006;2023-02-28T06:43:41;1.40;64.70
25616;DHT22;13482;48.234;13.006;2023-02-28T06:46:11;1.50;64.70
25616;DHT22;13482;48.234;13.006;2023-02-28T06:48:40;1.50;64.80
25616;DHT22;13482;48.234;13.006;2023-02-28T06:51:11;1.60;64.80
25616;DHT22;13482;48.234;13.006;2023-02-28T06:53:41;1.60;64.60
25616;DHT22;13482;48.234;13.006;2023-02-28T06:56:11;1.60;64.70
25616;DHT22;13482;48.234;13.006;2023-02-28T06:58:40;1.70;64.80
25616;DHT22;13482;48.234;13.006;2023-02-28T07:01:08;1.70;64.90
25616;DHT22;13482;48.234;13.006;2023-02-28T07:03:36;1.80;64.90
25616;DHT22;13482;48.234;13.006;2023-02-28T07:06:04;1.90;65.00
25616;DHT22;13482;48.234;13.006;2023-02-28T07:08:33;1.90;65.10
25616;DHT22;13482;48.234;13.006;2023-02-28T07:11:01;2.00;65.10
25616;DHT22;13482;48.234;13.006;2023-02-28T07:13:28;2.10;65.10
25616;DHT22;13482;48.234;13.006;2023-02-28T07:16:04;2.20;65.10
25616;DHT22;13482;48.234;13.006;2023-02-28T07:18:32;2.30;65.20
25616;DHT22;13482;48.234;13.006;2023-02-28T07:21:08;2.40;65.20
25616;DHT22;13482;48.234;13.006;2023-02-28T07:23:39;2.50;65.10
25616;DHT22;13482;48.234;13.006;2023-02-28T07:26:12;2.60;65.10
25616;DHT22;13482;48.234;13.006;2023-02-28T07:28:42;2.70;65.10
25616;DHT22;13482;48.234;13.006;2023-02-28T07:31:10;2.80;65.10
25616;DHT22;13482;48.234;13.006;2023-02-28T07:33:38;2.90;65.10
25616;DHT22;13482;48.234;13.006;2023-02-28T07:36:11;3.00;65.20
25616;DHT22;13482;48.234;13.006;2023-02-28T07:38:45;3.10;65.00
25616;DHT22;13482;48.234;13.006;2023-02-28T07:41:16;3.30;65.00
25616;DHT22;13482;48.234;13.006;2023-02-28T07:43:44;3.40;65.00
25616;DHT22;13482;48.234;13.006;2023-02-28T07:46:14;3.50;65.00
25616;DHT22;13482;48.234;13.006;2023-02-28T07:48:42;3.60;65.00
25616;DHT22;13482;48.234;13.006;2023-02-28T07:51:10;3.70;64.90
25616;DHT22;13482;48.234;13.006;2023-02-28T07:53:37;3.80;64.70
25616;DHT22;13482;48.234;13.006;2023-02-28T07:56:05;4.00;64.70
25616;DHT22;13482;48.234;13.006;2023-02-28T07:58:33;4.10;64.70
25616;DHT22;13482;48.234;13.006;2023-02-28T08:01:07;4.20;64.70
25616;DHT22;13482;48.234;13.006;2023-02-28T08:03:36;4.30;64.70
25616;DHT22;13482;48.234;13.006;2023-02-28T08:06:05;4.50;64.60
25616;DHT22;13482;48.234;13.006;2023-02-28T08:08:34;4.60;64.60
25616;DHT22;13482;48.234;13.006;2023-02-28T08:11:03;4.70;64.30
25616;DHT22;13482;48.234;13.006;2023-02-28T08:13:30;4.80;64.30
25616;DHT22;13482;48.234;13.006;2023-02-28T08:15:57;4.90;64.30
25616;DHT22;13482;48.234;13.006;2023-02-28T08:18:25;5.00;64.20
25616;DHT22;13482;48.234;13.006;2023-02-28T08:20:52;5.10;64.10
25616;DHT22;13482;48.234;13.006;2023-02-28T08:23:19;5.20;63.90
25616;DHT22;13482;48.234;13.006;2023-02-28T08:25:53;5.30;63.70
25616;DHT22;13482;48.234;13.006;2023-02-28T08:28:22;5.40;63.50
25616;DHT22;13482;48.234;13.006;2023-02-28T08:30:53;5.50;63.50
25616;DHT22;13482;48.234;13.006;2023-02-28T08:33:21;5.60;63.40
25616;DHT22;13482;48.234;13.006;2023-02-28T08:35:52;5.60;63.50
25616;DHT22;13482;48.234;13.006;2023-02-28T08:38:21;5.70;63.40
25616;DHT22;13482;48.234;13.006;2023-02-28T08:40:49;5.80;63.30
25616;DHT22;13482;48.234;13.006;2023-02-28T08:43:17;5.90;63.40
25616;DHT22;13482;48.234;13.006;2023-02-28T08:45:44;6.00;63.30
25616;DHT22;13482;48.234;13.006;2023-02-28T08:48:11;6.10;63.20
25616;DHT22;13482;48.234;13.006;2023-02-28T08:50:40;6.20;63.10
25616;DHT22;13482;48.234;13.006;2023-02-28T08:53:07;6.20;63.10
25616;DHT22;13482;48.234;13.006;2023-02-28T08:55:34;6.40;63.20
25616;DHT22;13482;48.234;13.006;2023-02-28T08:58:01;6.50;63.10
25616;DHT22;13482;48.234;13.006;2023-02-28T09:00:28;6.60;62.90
25616;DHT22;13482;48.234;13.006;2023-02-28T09:02:55;6.60;62.70
25616;DHT22;13482;48.234;13.006;2023-02-28T09:05:22;6.70;62.60
25616;DHT22;13482;48.234;13.006;2023-02-28T09:07:50;6.80;62.60
25616;DHT22;13482;48.234;13.006;2023-02-28T09:10:17;6.90;62.70
25616;DHT22;13482;48.234;13.006;2023-02-28T09:12:44;7.00;62.50
25616;DHT22;13482;48.234;13.006;2023-02-28T09:15:13;7.00;62.20
25616;DHT22;13482;48.234;13.006;2023-02-28T09:17:40;7.10;62.30
25616;DHT22;13482;48.234;13.006;2023-02-28T09:20:09;7.20;62.10
25616;DHT22;13482;48.234;13.006;2023-02-28T09:22:37;7.20;61.90
25616;DHT22;13482;48.234;13.006;2023-02-28T09:25:04;7.30;61.80
25616;DHT22;13482;48.234;13.006;2023-02-28T09:27:31;7.30;61.80
25616;DHT22;13482;48.234;13.006;2023-02-28T09:29:59;7.40;61.60
25616;DHT22;13482;48.234;13.006;2023-02-28T09:32:26;7.40;61.60
25616;DHT22;13482;48.234;13.006;2023-02-28T09:34:53;7.40;61.70
25616;DHT22;13482;48.234;13.006;2023-02-28T09:37:20;7.50;61.70
25616;DHT22;13482;48.234;13.006;2023-02-28T09:39:47;7.60;61.70
25616;DHT22;13482;48.234;13.006;2023-02-28T09:42:21;7.60;61.60
25616;DHT22;13482;48.234;13.006;2023-02-28T09:44:55;7.70;61.50
25616;DHT22;13482;48.234;13.006;2023-02-28T09:47:43;7.80;61.60
25616;DHT22;13482;48.234;13.006;2023-02-28T09:53:03;8.00;61.20
25616;DHT22;13482;48.234;13.006;2023-02-28T09:55:44;8.10;61.50
25616;DHT22;13482;48.234;13.006;2023-02-28T09:58:34;8.20;61.40
25616;DHT22;13482;48.234;13.006;2023-02-28T10:01:18;8.30;61.30
25616;DHT22;13482;48.234;13.006;2023-02-28T10:03:57;8.40;61.10
25616;DHT22;13482;48.234;13.006;2023-02-28T10:06:49;8.40;61.10
25616;DHT22;13482;48.234;13.006;2023-02-28T10:09:26;8.60;61.20
25616;DHT22;13482;48.234;13.006;2023-02-28T10:12:03;8.60;61.00
25616;DHT22;13482;48.234;13.006;2023-02-28T10:14:34;8.70;61.00
25616;DHT22;13482;48.234;13.006;2023-02-28T10:17:07;8.80;60.90
25616;DHT22;13482;48.234;13.006;2023-02-28T10:22:44;8.90;60.90
25616;DHT22;13482;48.234;13.006;2023-02-28T10:25:23;9.00;61.00
25616;DHT22;13482;48.234;13.006;2023-02-28T10:28:08;9.10;61.10
25616;DHT22;13482;48.234;13.006;2023-02-28T10:30:40;9.20;60.80
25616;DHT22;13482;48.234;13.006;2023-02-28T10:33:33;9.30;61.10
25616;DHT22;13482;48.234;13.006;2023-02-28T10:36:03;9.40;60.30
25616;DHT22;13482;48.234;13.006;2023-02-28T10:38:35;9.50;60.80
25616;DHT22;13482;48.234;13.006;2023-02-28T10:41:11;9.60;60.70
25616;DHT22;13482;48.234;13.006;2023-02-28T10:43:43;9.70;60.40
25616;DHT22;13482;48.234;13.006;2023-02-28T10:46:18;9.80;60.40
25616;DHT22;13482;48.234;13.006;2023-02-28T10:49:05;9.90;60.10
25616;DHT22;13482;48.234;13.006;2023-02-28T10:51:37;9.90;59.80
25616;DHT22;13482;48.234;13.006;2023-02-28T10:54:06;10.00;60.00
25616;DHT22;13482;48.234;13.006;2023-02-28T10:57:17;10.10;60.00
25616;DHT22;13482;48.234;13.006;2023-02-28T11:00:07;10.10;59.20
25616;DHT22;13482;48.234;13.006;2023-02-28T11:02:43;10.20;59.80
25616;DHT22;13482;48.234;13.006;2023-02-28T11:05:28;10.20;59.80
25616;DHT22;13482;48.234;13.006;2023-02-28T11:08:06;10.30;59.30
25616;DHT22;13482;48.234;13.006;2023-02-28T11:10:43;10.40;59.50
25616;DHT22;13482;48.234;13.006;2023-02-28T11:13:17;10.40;59.80
25616;DHT22;13482;48.234;13.006;2023-02-28T11:15:53;10.50;59.70
25616;DHT22;13482;48.234;13.006;2023-02-28T11:21:27;10.70;58.70
25616;DHT22;13482;48.234;13.006;2023-02-28T11:24:24;10.70;59.20
25616;DHT22;13482;48.234;13.006;2023-02-28T11:26:57;10.80;59.20
25616;DHT22;13482;48.234;13.006;2023-02-28T11:29:29;10.80;59.40
25616;DHT22;13482;48.234;13.006;2023-02-28T11:34:40;10.90;59.10
25616;DHT22;13482;48.234;13.006;2023-02-28T11:37:19;11.00;59.20
25616;DHT22;13482;48.234;13.006;2023-02-28T11:39:54;11.00;58.50
25616;DHT22;13482;48.234;13.006;2023-02-28T11:45:40;11.10;57.90
25616;DHT22;13482;48.234;13.006;2023-02-28T11:48:15;11.10;58.30
25616;DHT22;13482;48.234;13.006;2023-02-28T11:59:47;11.30;58.60
25616;DHT22;13482;48.234;13.006;2023-02-28T12:02:08;11.30;57.80
25616;DHT22;13482;48.234;13.006;2023-02-28T12:16:50;11.50;57.90
25616;DHT22;13482;48.234;13.006;2023-02-28T12:26:24;11.50;58.10
25616;DHT22;13482;48.234;13.006;2023-02-28T12:28:36;11.50;57.30
25616;DHT22;13482;48.234;13.006;2023-02-28T12:31:14;11.50;58.00
25616;DHT22;13482;48.234;13.006;2023-02-28T12:33:48;11.50;58.00
25616;DHT22;13482;48.234;13.006;2023-02-28T12:36:20;11.60;58.20
25616;DHT22;13482;48.234;13.006;2023-02-28T12:39:12;11.60;58.20
25616;DHT22;13482;48.234;13.006;2023-02-28T12:41:54;11.70;57.60
25616;DHT22;13482;48.234;13.006;2023-02-28T12:44:51;11.70;58.00
25616;DHT22;13482;48.234;13.006;2023-02-28T12:47:20;11.70;57.80
25616;DHT22;13482;48.234;13.006;2023-02-28T12:49:52;11.70;58.30
25616;DHT22;13482;48.234;13.006;2023-02-28T12:55:33;11.80;57.90
25616;DHT22;13482;48.234;13.006;2023-02-28T12:58:36;11.90;57.40
25616;DHT22;13482;48.234;13.006;2023-02-28T13:01:33;12.00;57.40
25616;DHT22;13482;48.234;13.006;2023-02-28T13:10:10;12.10;57.10
25616;DHT22;13482;48.234;13.006;2023-02-28T13:12:51;12.10;57.70
25616;DHT22;13482;48.234;13.006;2023-02-28T13:15:23;12.10;56.90
25616;DHT22;13482;48.234;13.006;2023-02-28T13:17:58;12.10;57.30
25616;DHT22;13482;48.234;13.006;2023-02-28T13:20:33;12.10;57.40
25616;DHT22;13482;48.234;13.006;2023-02-28T13:23:02;12.20;57.50
25616;DHT22;13482;48.234;13.006;2023-02-28T13:28:13;12.20;57.60
25616;DHT22;13482;48.234;13.006;2023-02-28T13:31:22;12.30;57.40
25616;DHT22;13482;48.234;13.006;2023-02-28T13:36:30;12.40;57.10
25616;DHT22;13482;48.234;13.006;2023-02-28T13:39:35;12.40;57.20
25616;DHT22;13482;48.234;13.006;2023-02-28T13:42:34;12.40;56.90
25616;DHT22;13482;48.234;13.006;2023-02-28T13:45:20;12.40;55.90
25616;DHT22;13482;48.234;13.006;2023-02-28T13:47:56;12.40;57.40
25616;DHT22;13482;48.234;13.006;2023-02-28T13:58:43;12.80;56.70
25616;DHT22;13482;48.234;13.006;2023-02-28T14:07:31;13.10;57.10
25616;DHT22;13482;48.234;13.006;2023-02-28T14:10:05;13.10;56.70
25616;DHT22;13482;48.234;13.006;2023-02-28T14:12:54;13.10;56.60
25616;DHT22;13482;48.234;13.006;2023-02-28T14:18:13;13.10;56.40
25616;DHT22;13482;48.234;13.006;2023-02-28T14:20:46;13.10;56.60
25616;DHT22;13482;48.234;13.006;2023-02-28T14:32:21;13.10;54.90
25616;DHT22;13482;48.234;13.006;2023-02-28T14:37:44;12.80;56.00
25616;DHT22;13482;48.234;13.006;2023-02-28T14:40:31;12.70;56.30
25616;DHT22;13482;48.234;13.006;2023-02-28T14:43:05;12.70;55.70
25616;DHT22;13482;48.234;13.006;2023-02-28T14:45:35;12.70;56.60
25616;DHT22;13482;48.234;13.006;2023-02-28T14:48:09;12.70;56.30
25616;DHT22;13482;48.234;13.006;2023-02-28T14:50:37;12.70;56.00
25616;DHT22;13482;48.234;13.006;2023-02-28T14:53:09;12.80;56.50
25616;DHT22;13482;48.234;13.006;2023-02-28T14:55:45;12.80;57.10
25616;DHT22;13482;48.234;13.006;2023-02-28T14:58:32;13.10;57.50
25616;DHT22;13482;48.234;13.006;2023-02-28T15:01:02;13.30;57.20
25616;DHT22;13482;48.234;13.006;2023-02-28T15:03:36;13.60;57.90
25616;DHT22;13482;48.234;13.006;2023-02-28T15:06:12;13.90;57.50
25616;DHT22;13482;48.234;13.006;2023-02-28T15:08:40;14.10;57.40
25616;DHT22;13482;48.234;13.006;2023-02-28T15:11:19;14.30;57.30
25616;DHT22;13482;48.234;13.006;2023-02-28T15:13:53;14.50;56.80
25616;DHT22;13482;48.234;13.006;2023-02-28T15:16:39;14.70;56.60
25616;DHT22;13482;48.234;13.006;2023-02-28T15:19:29;14.80;54.80
25616;DHT22;13482;48.234;13.006;2023-02-28T15:22:06;14.80;54.00
25616;DHT22;13482;48.234;13.006;2023-02-28T15:24:45;14.70;54.20
25616;DHT22;13482;48.234;13.006;2023-02-28T15:27:21;14.50;54.00
25616;DHT22;13482;48.234;13.006;2023-02-28T15:29:53;14.20;53.80
25616;DHT22;13482;48.234;13.006;2023-02-28T15:32:31;13.90;53.80
25616;DHT22;13482;48.234;13.006;2023-02-28T15:37:53;13.30;53.10
25616;DHT22;13482;48.234;13.006;2023-02-28T15:40:43;13.10;53.90
25616;DHT22;13482;48.234;13.006;2023-02-28T15:43:18;12.80;53.40
25616;DHT22;13482;48.234;13.006;2023-02-28T15:46:04;12.70;54.50
25616;DHT22;13482;48.234;13.006;2023-02-28T15:48:54;12.50;54.60
25616;DHT22;13482;48.234;13.006;2023-02-28T15:51:37;12.40;54.50
25616;DHT22;13482;48.234;13.006;2023-02-28T15:54:07;12.30;54.70
25616;DHT22;13482;48.234;13.006;2023-02-28T15:56:43;12.30;55.50
25616;DHT22;13482;48.234;13.006;2023-02-28T15:59:24;12.40;56.00
25616;DHT22;13482;48.234;13.006;2023-02-28T16:02:22;12.50;55.90
25616;DHT22;13482;48.234;13.006;2023-02-28T16:05:18;12.70;55.10
25616;DHT22;13482;48.234;13.006;2023-02-28T16:07:56;12.80;55.20
25616;DHT22;13482;48.234;13.006;2023-02-28T16:10:42;12.90;55.60
25616;DHT22;13482;48.234;13.006;2023-02-28T16:13:11;12.80;55.00
25616;DHT22;13482;48.234;13.006;2023-02-28T16:15:42;12.70;54.50
25616;DHT22;13482;48.234;13.006;2023-02-28T16:18:13;12.50;54.20
25616;DHT22;13482;48.234;13.006;2023-02-28T16:20:40;12.20;54.00
25616;DHT22;13482;48.234;13.006;2023-02-28T16:23:08;11.90;54.10
25616;DHT22;13482;48.234;13.006;2023-02-28T16:25:40;11.70;54.20
25616;DHT22;13482;48.234;13.006;2023-02-28T16:28:22;11.40;54.30
25616;DHT22;13482;48.234;13.006;2023-02-28T16:30:51;11.10;54.30
25616;DHT22;13482;48.234;13.006;2023-02-28T16:33:19;10.90;54.50
25616;DHT22;13482;48.234;13.006;2023-02-28T16:35:46;10.70;54.70
25616;DHT22;13482;48.234;13.006;2023-02-28T16:38:13;10.40;54.80
25616;DHT22;13482;48.234;13.006;2023-02-28T16:40:41;10.20;54.90
25616;DHT22;13482;48.234;13.006;2023-02-28T16:43:15;10.10;55.10
25616;DHT22;13482;48.234;13.006;2023-02-28T16:45:44;9.90;55.30
25616;DHT22;13482;48.234;13.006;2023-02-28T16:48:16;9.70;55.40
25616;DHT22;13482;48.234;13.006;2023-02-28T16:50:43;9.60;55.60
25616;DHT22;13482;48.234;13.006;2023-02-28T16:53:11;9.40;55.60
25616;DHT22;13482;48.234;13.006;2023-02-28T16:55:38;9.30;55.70
25616;DHT22;13482;48.234;13.006;2023-02-28T16:58:06;9.20;55.70
25616;DHT22;13482;48.234;13.006;2023-02-28T17:00:33;9.00;55.80
25616;DHT22;13482;48.234;13.006;2023-02-28T17:03:00;8.90;56.00
25616;DHT22;13482;48.234;13.006;2023-02-28T17:05:37;8.80;56.10
25616;DHT22;13482;48.234;13.006;2023-02-28T17:08:06;8.70;56.30
25616;DHT22;13482;48.234;13.006;2023-02-28T17:10:33;8.60;56.30
25616;DHT22;13482;48.234;13.006;2023-02-28T17:13:00;8.50;56.40
25616;DHT22;13482;48.234;13.006;2023-02-28T17:15:40;8.40;56.50
25616;DHT22;13482;48.234;13.006;2023-02-28T17:18:12;8.30;56.70
25616;DHT22;13482;48.234;13.006;2023-02-28T17:20:42;8.30;56.70
25616;DHT22;13482;48.234;13.006;2023-02-28T17:23:09;8.20;56.80
25616;DHT22;13482;48.234;13.006;2023-02-28T17:25:36;8.10;56.90
25616;DHT22;13482;48.234;13.006;2023-02-28T17:28:03;8.10;56.90
25616;DHT22;13482;48.234;13.006;2023-02-28T17:30:33;8.00;57.00
25616;DHT22;13482;48.234;13.006;2023-02-28T17:33:01;8.00;57.10
25616;DHT22;13482;48.234;13.006;2023-02-28T17:35:28;7.90;57.20
25616;DHT22;13482;48.234;13.006;2023-02-28T17:37:55;7.90;57.30
25616;DHT22;13482;48.234;13.006;2023-02-28T17:40:23;7.90;57.40
25616;DHT22;13482;48.234;13.006;2023-02-28T17:42:51;7.80;57.40
25616;DHT22;13482;48.234;13.006;2023-02-28T17:45:19;7.80;57.50
25616;DHT22;13482;48.234;13.006;2023-02-28T17:47:48;7.80;57.50
25616;DHT22;13482;48.234;13.006;2023-02-28T17:50:21;7.80;57.60
25616;DHT22;13482;48.234;13.006;2023-02-28T17:52:48;7.70;57.60
25616;DHT22;13482;48.234;13.006;2023-02-28T17:55:17;7.70;57.70
25616;DHT22;13482;48.234;13.006;2023-02-28T17:57:45;7.70;57.90
25616;DHT22;13482;48.234;13.006;2023-02-28T18:00:15;7.70;57.90
25616;DHT22;13482;48.234;13.006;2023-02-28T18:02:44;7.70;58.00
25616;DHT22;13482;48.234;13.006;2023-02-28T18:05:11;7.60;58.00